Flight Track Log - Related Links

Times and Time Zones

All times are in EDT time to prevent confusion due to time zone crossing. See the FLG4262 flight status page for this flight to view local times or setup timezone preferences in your user account.

Time Position Orientation Groundspeed Altitude Reporting Facility
EDT Latitude Longitude Course Direction KTS MPH feet Rate Location/Type
Sat 04:15:08 PM 42.2328 -83.3483 37° Northeast 173 199 1,400  Level Cleveland Center
Sat 04:16:03 PM 42.2736 -83.3061 37° Northeast 208 239 3,300 1,563 Climbing Cleveland Center
Sat 04:16:44 PM 42.2981 -83.2797 39° Northeast 215 247 3,900 2,066 Climbing Cleveland Center
Sat 04:17:04 PM 42.3303 -83.2519 33° Northeast 269 310 5,400 3,290 Climbing Cleveland Center
Sat 04:17:46 PM 42.3656 -83.2114 40° Northeast 266 306 7,300 2,951 Climbing Cleveland Center
Sat 04:18:05 PM 42.3722 -83.1675 78° East 287 330 8,400 1,967 Climbing Cleveland Center
Sat 04:18:47 PM 42.3764 -83.0936 86° East 292 336 9,300 923 Climbing Cleveland Center
Sat 04:19:49 PM 42.3656 -82.9786 97° East 305 351 10,000 532 Climbing Cleveland Center
Sat 04:20:51 PM 42.3531 -82.8522 98° East 333 383 10,400 976 Climbing Cleveland Center
Sat 04:21:52 PM 42.3406 -82.7111 97° East 369 425 12,000 1,610 Climbing Cleveland Center
Sat 04:22:54 PM 42.3478 -82.5672 86° East 386 444 13,700 1,790 Climbing Cleveland Center
Sat 04:23:56 PM 42.3667 -82.4264 80° East 384 442 15,700 1,756 Climbing Cleveland Center
Sat 04:24:57 PM 42.3592 -82.2817 94° East 386 444 17,300 1,756 Climbing Cleveland Center
Sat 04:25:59 PM 42.3531 -82.1083 93° East 393 452 19,300 1,645 Climbing Cleveland Center
Sat 04:27:01 PM 42.3472 -81.9597 93° East 393 452 20,700 1,171 Climbing Cleveland Center
Sat 04:28:02 PM 42.3408 -81.8081 93° East 398 458 21,700 976 Climbing Cleveland Center
Sat 04:29:04 PM 42.3331 -81.6533 94° East 406 467 22,700 1,016 Climbing Cleveland Center
Sat 04:30:06 PM 42.3267 -81.4964 93° East 412 474 23,800 1,024 Climbing Cleveland Center
Sat 04:31:07 PM 42.3192 -81.3378 94° East 418 481 24,800 585 Climbing Cleveland Center
Sat 04:32:09 PM 42.3111 -81.1767 94° East 423 487 25,000 98 Climbing Cleveland Center
Sat 04:33:10 PM 42.3017 -81.0069 94° East 443 510 25,000  Level Cleveland Center
Sat 04:34:12 PM 42.2925 -80.8289 94° East 463 533 25,000  Level Cleveland Center
Sat 04:35:14 PM 42.2844 -80.6517 93° East 467 537 25,000  Level Cleveland Center
Sat 04:36:15 PM 42.2747 -80.4733 94° East 470 541 25,000  Level Cleveland Center
Sat 04:37:17 PM 42.2625 -80.2675 95° East 467 537 25,000  Level Cleveland Center
Sat 04:38:19 PM 42.2522 -80.0944 95° East 460 529 25,000  Level Cleveland Center
Sat 04:39:20 PM 42.2428 -79.9344 95° East 450 518 25,000  Level Cleveland Center
Sat 04:40:22 PM 42.2314 -79.7725 95° East 439 505 25,000  Level Cleveland Center
Sat 04:41:24 PM 42.2217 -79.6119 95° East 434 499 25,000  Level Cleveland Center
Sat 04:42:25 PM 42.2092 -79.4211 95° East 430 495 25,000  Level Cleveland Center
Sat 04:43:27 PM 42.1983 -79.2631 95° East 426 490 25,000  Level Cleveland Center
Sat 04:44:29 PM 42.1883 -79.1033 95° East 428 493 25,000  Level Cleveland Center
Sat 04:45:30 PM 42.1914 -78.9414 88° East 434 499 25,000  Level Cleveland Center
Sat 04:46:32 PM 42.1947 -78.7692 88° East 435 501 25,000 -98 Level Cleveland Center
Sat 04:47:33 PM 42.1972 -78.6072 89° East 435 501 24,800 -878 Descending Cleveland Center
Sat 04:48:35 PM 42.2000 -78.4400 89° East 444 511 23,200 -1,500 Descending Cleveland Center
Sat 04:49:37 PM 42.2017 -78.2686 89° East 456 525 21,700 -1,463 Descending Cleveland Center
Sat 04:50:38 PM 42.2044 -78.0986 89° East 458 527 20,200 -1,317 Descending Cleveland Center
Sat 04:51:40 PM 42.2069 -77.8961 89° East 456 525 19,000 -1,005 Descending Cleveland Center
Sat 04:53:43 PM 42.2097 -77.5803 89° East 424 488 17,100 -652 Descending Cleveland Center
Sat 04:54:44 PM 42.2106 -77.4303 90° East 407 468 17,000 -49 Descending Cleveland Center
Sat 04:55:46 PM 42.2108 -77.2872 90° East 389 448 17,000  Level Cleveland Center
Sat 04:56:47 PM 42.2114 -77.1417 90° East 391 450 17,000 -327 Level Cleveland Center
Sat 04:57:36 PM 42.2111 -77.0142 90° East 385 443 16,400 -1,706 Descending New York Center
Sat 04:58:36 PM 42.2114 -76.8492 90° East 392 451 13,900 -2,050 Descending New York Center
Sat 04:59:36 PM 42.2094 -76.7200 91° East 371 427 12,300 -1,800 Descending New York Center
Sat 05:00:36 PM 42.2153 -76.6058 86° East 336 387 10,300 -2,000 Descending New York Center
Sat 05:01:36 PM 42.2417 -76.4906 73° East 319 367 8,300 -2,050 Descending New York Center
Sat 05:02:36 PM 42.2636 -76.3775 75° East 313 360 6,200 -1,900 Descending New York Center
Sat 05:03:36 PM 42.2875 -76.2703 73° East 307 353 4,500 -1,450 Descending New York Center
Sat 05:04:36 PM 42.3081 -76.1794 73° East 279 321 3,300 -550 Descending New York Center
Sat 05:05:36 PM 42.3136 -76.1042 84° East 231 266 3,400  Climbing New York Center
Sat 05:06:36 PM 42.2911 -76.0519 120° Southeast 168 193 3,300 -350 Descending New York Center
Sat 05:07:36 PM 42.2569 -76.0239 149° Southeast 151 174 2,700 -550 Descending New York Center
Sat 05:08:36 PM 42.2350 -76.0025 144° Southeast 136 157 2,200 -500 Descending New York Center

Login

Don't have an account? Register now (free) for customized features, flight alerts, and more!